sensor_id;sensor_type;location;lat;lon;timestamp;P1;durP1;ratioP1;P2;durP2;ratioP2
84881;SDS011;75144;52.360;9.814;2024-01-06T00:02:03;25.05;;;11.35;;
84881;SDS011;75144;52.360;9.814;2024-01-06T00:04:29;20.40;;;9.90;;
84881;SDS011;75144;52.360;9.814;2024-01-06T00:06:55;20.70;;;10.05;;
84881;SDS011;75144;52.360;9.814;2024-01-06T00:09:20;19.73;;;9.55;;
84881;SDS011;75144;52.360;9.814;2024-01-06T00:11:45;19.03;;;10.87;;
84881;SDS011;75144;52.360;9.814;2024-01-06T00:14:11;20.27;;;9.90;;
84881;SDS011;75144;52.360;9.814;2024-01-06T00:16:37;19.80;;;10.55;;
84881;SDS011;75144;52.360;9.814;2024-01-06T00:19:03;20.88;;;10.90;;
84881;SDS011;75144;52.360;9.814;2024-01-06T00:21:30;19.02;;;9.45;;
84881;SDS011;75144;52.360;9.814;2024-01-06T00:23:56;22.92;;;10.02;;
84881;SDS011;75144;52.360;9.814;2024-01-06T00:26:23;19.70;;;9.68;;
84881;SDS011;75144;52.360;9.814;2024-01-06T00:28:49;19.33;;;9.95;;
84881;SDS011;75144;52.360;9.814;2024-01-06T00:31:15;20.23;;;9.88;;
84881;SDS011;75144;52.360;9.814;2024-01-06T00:33:42;20.80;;;11.40;;
84881;SDS011;75144;52.360;9.814;2024-01-06T00:36:07;21.30;;;10.75;;
84881;SDS011;75144;52.360;9.814;2024-01-06T00:38:33;21.10;;;10.57;;
84881;SDS011;75144;52.360;9.814;2024-01-06T00:41:00;19.58;;;10.25;;
84881;SDS011;75144;52.360;9.814;2024-01-06T00:43:26;21.42;;;11.00;;
84881;SDS011;75144;52.360;9.814;2024-01-06T00:45:51;21.87;;;11.03;;
84881;SDS011;75144;52.360;9.814;2024-01-06T00:48:16;22.10;;;10.57;;
84881;SDS011;75144;52.360;9.814;2024-01-06T00:50:41;22.17;;;10.43;;
84881;SDS011;75144;52.360;9.814;2024-01-06T00:53:07;19.63;;;10.97;;
84881;SDS011;75144;52.360;9.814;2024-01-06T00:55:32;19.13;;;10.80;;
84881;SDS011;75144;52.360;9.814;2024-01-06T00:57:57;19.77;;;10.63;;
84881;SDS011;75144;52.360;9.814;2024-01-06T01:00:22;21.07;;;10.63;;
84881;SDS011;75144;52.360;9.814;2024-01-06T01:02:48;21.40;;;10.93;;
84881;SDS011;75144;52.360;9.814;2024-01-06T01:05:13;21.67;;;11.20;;
84881;SDS011;75144;52.360;9.814;2024-01-06T01:07:38;21.00;;;10.23;;
84881;SDS011;75144;52.360;9.814;2024-01-06T01:10:04;22.07;;;10.87;;
84881;SDS011;75144;52.360;9.814;2024-01-06T01:12:30;25.23;;;11.82;;
84881;SDS011;75144;52.360;9.814;2024-01-06T01:14:55;22.27;;;10.90;;
84881;SDS011;75144;52.360;9.814;2024-01-06T01:17:21;21.05;;;11.15;;
84881;SDS011;75144;52.360;9.814;2024-01-06T01:19:46;21.37;;;10.43;;
84881;SDS011;75144;52.360;9.814;2024-01-06T01:22:11;17.10;;;9.60;;
84881;SDS011;75144;52.360;9.814;2024-01-06T01:24:37;18.38;;;9.93;;
84881;SDS011;75144;52.360;9.814;2024-01-06T01:27:02;18.40;;;9.18;;
84881;SDS011;75144;52.360;9.814;2024-01-06T01:29:28;19.67;;;9.82;;
84881;SDS011;75144;52.360;9.814;2024-01-06T01:31:53;18.40;;;10.07;;
84881;SDS011;75144;52.360;9.814;2024-01-06T01:34:18;17.10;;;9.50;;
84881;SDS011;75144;52.360;9.814;2024-01-06T01:36:44;18.08;;;9.18;;
84881;SDS011;75144;52.360;9.814;2024-01-06T01:39:09;17.80;;;9.67;;
84881;SDS011;75144;52.360;9.814;2024-01-06T01:41:34;16.97;;;8.73;;
84881;SDS011;75144;52.360;9.814;2024-01-06T01:44:00;18.70;;;9.93;;
84881;SDS011;75144;52.360;9.814;2024-01-06T01:46:25;19.60;;;9.10;;
84881;SDS011;75144;52.360;9.814;2024-01-06T01:48:53;17.02;;;9.10;;
84881;SDS011;75144;52.360;9.814;2024-01-06T01:51:20;16.98;;;9.07;;
84881;SDS011;75144;52.360;9.814;2024-01-06T01:53:45;18.55;;;8.95;;
84881;SDS011;75144;52.360;9.814;2024-01-06T01:56:10;18.95;;;8.98;;
84881;SDS011;75144;52.360;9.814;2024-01-06T01:58:36;17.77;;;9.18;;
84881;SDS011;75144;52.360;9.814;2024-01-06T02:01:02;16.17;;;8.88;;
84881;SDS011;75144;52.360;9.814;2024-01-06T02:03:28;20.02;;;10.27;;
84881;SDS011;75144;52.360;9.814;2024-01-06T02:05:55;19.48;;;10.43;;
84881;SDS011;75144;52.360;9.814;2024-01-06T02:08:20;19.40;;;9.23;;
84881;SDS011;75144;52.360;9.814;2024-01-06T02:10:46;19.38;;;9.48;;
84881;SDS011;75144;52.360;9.814;2024-01-06T02:13:11;17.03;;;8.43;;
84881;SDS011;75144;52.360;9.814;2024-01-06T02:15:37;18.77;;;9.30;;
84881;SDS011;75144;52.360;9.814;2024-01-06T02:18:02;18.70;;;9.50;;
84881;SDS011;75144;52.360;9.814;2024-01-06T02:20:28;17.60;;;9.32;;
84881;SDS011;75144;52.360;9.814;2024-01-06T02:22:55;17.67;;;8.60;;
84881;SDS011;75144;52.360;9.814;2024-01-06T02:25:21;18.75;;;9.15;;
84881;SDS011;75144;52.360;9.814;2024-01-06T02:27:47;18.27;;;10.23;;
84881;SDS011;75144;52.360;9.814;2024-01-06T02:30:12;19.40;;;9.37;;
84881;SDS011;75144;52.360;9.814;2024-01-06T02:32:38;19.20;;;9.60;;
84881;SDS011;75144;52.360;9.814;2024-01-06T02:35:03;21.37;;;9.37;;
84881;SDS011;75144;52.360;9.814;2024-01-06T02:37:28;18.88;;;9.77;;
84881;SDS011;75144;52.360;9.814;2024-01-06T02:39:54;21.80;;;9.73;;
84881;SDS011;75144;52.360;9.814;2024-01-06T02:42:19;20.73;;;9.23;;
84881;SDS011;75144;52.360;9.814;2024-01-06T02:44:44;18.80;;;10.02;;
84881;SDS011;75144;52.360;9.814;2024-01-06T02:47:10;19.60;;;9.60;;
84881;SDS011;75144;52.360;9.814;2024-01-06T02:49:36;18.85;;;9.57;;
84881;SDS011;75144;52.360;9.814;2024-01-06T02:52:02;17.67;;;8.13;;
84881;SDS011;75144;52.360;9.814;2024-01-06T02:54:27;16.33;;;8.65;;
84881;SDS011;75144;52.360;9.814;2024-01-06T02:56:53;18.13;;;8.47;;
84881;SDS011;75144;52.360;9.814;2024-01-06T02:59:18;18.13;;;9.57;;
84881;SDS011;75144;52.360;9.814;2024-01-06T03:01:43;17.90;;;8.97;;
84881;SDS011;75144;52.360;9.814;2024-01-06T03:04:08;17.77;;;8.57;;
84881;SDS011;75144;52.360;9.814;2024-01-06T03:06:34;18.83;;;9.60;;
84881;SDS011;75144;52.360;9.814;2024-01-06T03:08:59;17.80;;;9.35;;
84881;SDS011;75144;52.360;9.814;2024-01-06T03:11:24;18.87;;;8.93;;
84881;SDS011;75144;52.360;9.814;2024-01-06T03:13:50;17.53;;;9.63;;
84881;SDS011;75144;52.360;9.814;2024-01-06T03:16:15;19.43;;;8.73;;
84881;SDS011;75144;52.360;9.814;2024-01-06T03:18:40;19.13;;;9.50;;
84881;SDS011;75144;52.360;9.814;2024-01-06T03:21:05;17.23;;;9.30;;
84881;SDS011;75144;52.360;9.814;2024-01-06T03:23:41;21.02;;;10.43;;
84881;SDS011;75144;52.360;9.814;2024-01-06T03:26:07;19.80;;;9.17;;
84881;SDS011;75144;52.360;9.814;2024-01-06T03:28:32;19.57;;;8.87;;
84881;SDS011;75144;52.360;9.814;2024-01-06T03:30:57;18.07;;;9.33;;
84881;SDS011;75144;52.360;9.814;2024-01-06T03:33:22;21.40;;;9.87;;
84881;SDS011;75144;52.360;9.814;2024-01-06T03:35:48;19.03;;;8.40;;
84881;SDS011;75144;52.360;9.814;2024-01-06T03:38:13;21.53;;;10.33;;
84881;SDS011;75144;52.360;9.814;2024-01-06T03:40:38;20.73;;;9.93;;
84881;SDS011;75144;52.360;9.814;2024-01-06T03:43:03;18.63;;;9.33;;
84881;SDS011;75144;52.360;9.814;2024-01-06T03:45:29;21.60;;;10.13;;
84881;SDS011;75144;52.360;9.814;2024-01-06T03:47:54;20.83;;;9.33;;
84881;SDS011;75144;52.360;9.814;2024-01-06T03:50:19;22.43;;;11.27;;
84881;SDS011;75144;52.360;9.814;2024-01-06T03:52:44;21.97;;;10.07;;
84881;SDS011;75144;52.360;9.814;2024-01-06T03:55:10;23.90;;;9.50;;
84881;SDS011;75144;52.360;9.814;2024-01-06T03:57:35;18.63;;;9.27;;
84881;SDS011;75144;52.360;9.814;2024-01-06T04:00:01;19.40;;;9.93;;
84881;SDS011;75144;52.360;9.814;2024-01-06T04:02:26;25.13;;;10.63;;
84881;SDS011;75144;52.360;9.814;2024-01-06T04:04:51;22.73;;;10.73;;
84881;SDS011;75144;52.360;9.814;2024-01-06T04:07:16;19.47;;;8.57;;
84881;SDS011;75144;52.360;9.814;2024-01-06T04:09:42;19.60;;;9.90;;
84881;SDS011;75144;52.360;9.814;2024-01-06T04:12:08;20.60;;;9.20;;
84881;SDS011;75144;52.360;9.814;2024-01-06T04:14:33;20.50;;;10.07;;
84881;SDS011;75144;52.360;9.814;2024-01-06T04:16:59;21.30;;;9.93;;
84881;SDS011;75144;52.360;9.814;2024-01-06T04:19:24;20.20;;;10.13;;
84881;SDS011;75144;52.360;9.814;2024-01-06T04:21:49;20.97;;;9.93;;
84881;SDS011;75144;52.360;9.814;2024-01-06T04:24:14;19.70;;;10.03;;
84881;SDS011;75144;52.360;9.814;2024-01-06T04:26:39;19.37;;;8.37;;
84881;SDS011;75144;52.360;9.814;2024-01-06T04:29:05;17.33;;;9.68;;
84881;SDS011;75144;52.360;9.814;2024-01-06T04:31:30;20.90;;;9.87;;
84881;SDS011;75144;52.360;9.814;2024-01-06T04:33:56;22.00;;;9.77;;
84881;SDS011;75144;52.360;9.814;2024-01-06T04:36:21;22.57;;;10.17;;
84881;SDS011;75144;52.360;9.814;2024-01-06T04:38:46;22.33;;;9.77;;
84881;SDS011;75144;52.360;9.814;2024-01-06T04:41:11;21.47;;;9.63;;
84881;SDS011;75144;52.360;9.814;2024-01-06T04:43:36;19.67;;;9.17;;
84881;SDS011;75144;52.360;9.814;2024-01-06T04:46:02;21.07;;;10.00;;
84881;SDS011;75144;52.360;9.814;2024-01-06T04:48:27;21.08;;;10.40;;
84881;SDS011;75144;52.360;9.814;2024-01-06T04:50:52;22.53;;;10.47;;
84881;SDS011;75144;52.360;9.814;2024-01-06T04:53:18;21.33;;;9.87;;
84881;SDS011;75144;52.360;9.814;2024-01-06T04:55:43;21.35;;;9.55;;
84881;SDS011;75144;52.360;9.814;2024-01-06T04:58:08;26.07;;;11.47;;
84881;SDS011;75144;52.360;9.814;2024-01-06T05:00:33;22.33;;;9.53;;
84881;SDS011;75144;52.360;9.814;2024-01-06T05:03:01;23.25;;;10.18;;
84881;SDS011;75144;52.360;9.814;2024-01-06T05:05:26;22.42;;;10.48;;
84881;SDS011;75144;52.360;9.814;2024-01-06T05:07:51;22.63;;;10.10;;
84881;SDS011;75144;52.360;9.814;2024-01-06T05:10:17;21.13;;;9.73;;
84881;SDS011;75144;52.360;9.814;2024-01-06T05:12:42;24.97;;;11.33;;
84881;SDS011;75144;52.360;9.814;2024-01-06T05:15:07;21.83;;;10.60;;
84881;SDS011;75144;52.360;9.814;2024-01-06T05:17:34;21.60;;;9.70;;
84881;SDS011;75144;52.360;9.814;2024-01-06T05:19:59;21.50;;;10.17;;
84881;SDS011;75144;52.360;9.814;2024-01-06T05:22:25;20.58;;;9.98;;
84881;SDS011;75144;52.360;9.814;2024-01-06T05:24:50;24.80;;;10.60;;
84881;SDS011;75144;52.360;9.814;2024-01-06T05:27:18;22.17;;;9.05;;
84881;SDS011;75144;52.360;9.814;2024-01-06T05:29:43;25.00;;;10.40;;
84881;SDS011;75144;52.360;9.814;2024-01-06T05:32:09;19.50;;;9.20;;
84881;SDS011;75144;52.360;9.814;2024-01-06T05:34:34;20.93;;;9.67;;
84881;SDS011;75144;52.360;9.814;2024-01-06T05:36:59;22.35;;;10.02;;
84881;SDS011;75144;52.360;9.814;2024-01-06T05:39:24;20.30;;;9.00;;
84881;SDS011;75144;52.360;9.814;2024-01-06T05:41:50;20.48;;;9.13;;
84881;SDS011;75144;52.360;9.814;2024-01-06T05:44:15;23.07;;;9.63;;
84881;SDS011;75144;52.360;9.814;2024-01-06T05:46:40;21.17;;;9.93;;
84881;SDS011;75144;52.360;9.814;2024-01-06T05:49:05;23.20;;;11.07;;
84881;SDS011;75144;52.360;9.814;2024-01-06T05:51:31;21.50;;;9.73;;
84881;SDS011;75144;52.360;9.814;2024-01-06T05:53:56;19.65;;;9.10;;
84881;SDS011;75144;52.360;9.814;2024-01-06T05:56:24;20.23;;;8.40;;
84881;SDS011;75144;52.360;9.814;2024-01-06T05:58:50;21.75;;;9.75;;
84881;SDS011;75144;52.360;9.814;2024-01-06T06:01:16;21.23;;;9.20;;
84881;SDS011;75144;52.360;9.814;2024-01-06T06:03:42;22.57;;;8.73;;
84881;SDS011;75144;52.360;9.814;2024-01-06T06:06:08;18.42;;;8.32;;
84881;SDS011;75144;52.360;9.814;2024-01-06T06:08:33;21.57;;;10.30;;
84881;SDS011;75144;52.360;9.814;2024-01-06T06:10:58;20.33;;;9.23;;
84881;SDS011;75144;52.360;9.814;2024-01-06T06:13:29;21.35;;;9.75;;
84881;SDS011;75144;52.360;9.814;2024-01-06T06:15:54;23.05;;;9.88;;
84881;SDS011;75144;52.360;9.814;2024-01-06T06:18:20;26.70;;;10.52;;
84881;SDS011;75144;52.360;9.814;2024-01-06T06:20:45;19.93;;;8.63;;
84881;SDS011;75144;52.360;9.814;2024-01-06T06:23:10;21.30;;;9.43;;
84881;SDS011;75144;52.360;9.814;2024-01-06T06:25:37;22.88;;;9.95;;
84881;SDS011;75144;52.360;9.814;2024-01-06T06:28:05;24.23;;;10.35;;
84881;SDS011;75144;52.360;9.814;2024-01-06T06:30:43;19.88;;;9.18;;
84881;SDS011;75144;52.360;9.814;2024-01-06T06:33:21;21.33;;;9.55;;
84881;SDS011;75144;52.360;9.814;2024-01-06T06:39:00;26.17;;;9.95;;
84881;SDS011;75144;52.360;9.814;2024-01-06T06:41:25;21.63;;;9.77;;
84881;SDS011;75144;52.360;9.814;2024-01-06T06:43:51;24.63;;;10.47;;
84881;SDS011;75144;52.360;9.814;2024-01-06T06:46:16;25.37;;;10.63;;
84881;SDS011;75144;52.360;9.814;2024-01-06T06:48:49;22.73;;;10.23;;
84881;SDS011;75144;52.360;9.814;2024-01-06T06:54:39;26.25;;;9.98;;
84881;SDS011;75144;52.360;9.814;2024-01-06T07:07:39;25.13;;;11.27;;
84881;SDS011;75144;52.360;9.814;2024-01-06T07:10:47;24.77;;;10.18;;
84881;SDS011;75144;52.360;9.814;2024-01-06T07:13:15;23.85;;;10.85;;
84881;SDS011;75144;52.360;9.814;2024-01-06T07:15:46;24.00;;;10.88;;
84881;SDS011;75144;52.360;9.814;2024-01-06T07:18:14;29.15;;;10.93;;
84881;SDS011;75144;52.360;9.814;2024-01-06T07:20:55;25.10;;;10.73;;
84881;SDS011;75144;52.360;9.814;2024-01-06T07:23:29;29.00;;;11.07;;
84881;SDS011;75144;52.360;9.814;2024-01-06T07:26:02;23.67;;;11.77;;
84881;SDS011;75144;52.360;9.814;2024-01-06T07:28:32;27.10;;;10.52;;
84881;SDS011;75144;52.360;9.814;2024-01-06T07:30:58;29.33;;;11.60;;
84881;SDS011;75144;52.360;9.814;2024-01-06T07:33:23;26.57;;;10.50;;
84881;SDS011;75144;52.360;9.814;2024-01-06T07:35:49;29.25;;;10.55;;
84881;SDS011;75144;52.360;9.814;2024-01-06T07:38:15;27.63;;;10.32;;
84881;SDS011;75144;52.360;9.814;2024-01-06T07:40:40;26.05;;;11.02;;
84881;SDS011;75144;52.360;9.814;2024-01-06T07:43:07;26.13;;;11.68;;
84881;SDS011;75144;52.360;9.814;2024-01-06T07:45:32;26.80;;;11.43;;
84881;SDS011;75144;52.360;9.814;2024-01-06T07:47:58;30.63;;;12.50;;
84881;SDS011;75144;52.360;9.814;2024-01-06T07:50:24;25.83;;;11.75;;
84881;SDS011;75144;52.360;9.814;2024-01-06T07:52:49;30.08;;;11.27;;
84881;SDS011;75144;52.360;9.814;2024-01-06T07:55:14;27.63;;;11.00;;
84881;SDS011;75144;52.360;9.814;2024-01-06T07:57:39;32.87;;;12.90;;
84881;SDS011;75144;52.360;9.814;2024-01-06T08:00:05;30.03;;;12.33;;
84881;SDS011;75144;52.360;9.814;2024-01-06T08:02:30;27.52;;;11.90;;
84881;SDS011;75144;52.360;9.814;2024-01-06T08:04:56;26.97;;;11.90;;
84881;SDS011;75144;52.360;9.814;2024-01-06T08:07:22;30.65;;;12.43;;
84881;SDS011;75144;52.360;9.814;2024-01-06T08:09:47;32.28;;;11.38;;
84881;SDS011;75144;52.360;9.814;2024-01-06T08:12:13;31.02;;;10.77;;
84881;SDS011;75144;52.360;9.814;2024-01-06T08:14:38;26.35;;;11.27;;
84881;SDS011;75144;52.360;9.814;2024-01-06T08:17:03;30.40;;;11.00;;
84881;SDS011;75144;52.360;9.814;2024-01-06T08:19:28;30.97;;;11.60;;
84881;SDS011;75144;52.360;9.814;2024-01-06T08:21:55;27.23;;;11.57;;
84881;SDS011;75144;52.360;9.814;2024-01-06T08:24:20;32.55;;;12.45;;
84881;SDS011;75144;52.360;9.814;2024-01-06T08:26:46;26.65;;;11.00;;
84881;SDS011;75144;52.360;9.814;2024-01-06T08:29:11;29.63;;;11.70;;
84881;SDS011;75144;52.360;9.814;2024-01-06T08:31:36;28.67;;;11.13;;
84881;SDS011;75144;52.360;9.814;2024-01-06T08:34:01;29.77;;;11.47;;
84881;SDS011;75144;52.360;9.814;2024-01-06T08:36:27;27.67;;;11.30;;
84881;SDS011;75144;52.360;9.814;2024-01-06T08:38:52;30.57;;;11.50;;
84881;SDS011;75144;52.360;9.814;2024-01-06T08:41:17;32.50;;;11.37;;
84881;SDS011;75144;52.360;9.814;2024-01-06T08:43:42;28.17;;;11.77;;
84881;SDS011;75144;52.360;9.814;2024-01-06T08:46:08;28.67;;;10.97;;
84881;SDS011;75144;52.360;9.814;2024-01-06T08:48:33;27.43;;;12.10;;
84881;SDS011;75144;52.360;9.814;2024-01-06T08:50:58;29.63;;;11.40;;
84881;SDS011;75144;52.360;9.814;2024-01-06T08:53:23;27.10;;;10.77;;
84881;SDS011;75144;52.360;9.814;2024-01-06T08:55:48;27.20;;;10.40;;
84881;SDS011;75144;52.360;9.814;2024-01-06T08:58:14;24.13;;;10.43;;
84881;SDS011;75144;52.360;9.814;2024-01-06T09:00:39;21.67;;;9.37;;
84881;SDS011;75144;52.360;9.814;2024-01-06T09:03:04;23.70;;;10.23;;
84881;SDS011;75144;52.360;9.814;2024-01-06T09:05:29;24.03;;;10.60;;
84881;SDS011;75144;52.360;9.814;2024-01-06T09:07:55;20.00;;;10.13;;
84881;SDS011;75144;52.360;9.814;2024-01-06T09:10:20;22.40;;;10.00;;
84881;SDS011;75144;52.360;9.814;2024-01-06T09:12:45;24.00;;;9.73;;
84881;SDS011;75144;52.360;9.814;2024-01-06T09:15:10;21.80;;;9.47;;
84881;SDS011;75144;52.360;9.814;2024-01-06T09:17:36;22.52;;;9.35;;
84881;SDS011;75144;52.360;9.814;2024-01-06T09:20:01;21.10;;;9.60;;
84881;SDS011;75144;52.360;9.814;2024-01-06T09:22:27;22.40;;;9.45;;
84881;SDS011;75144;52.360;9.814;2024-01-06T09:24:53;24.27;;;11.40;;
84881;SDS011;75144;52.360;9.814;2024-01-06T09:27:18;21.70;;;10.27;;
84881;SDS011;75144;52.360;9.814;2024-01-06T09:29:44;17.42;;;8.68;;
84881;SDS011;75144;52.360;9.814;2024-01-06T09:32:09;20.13;;;9.80;;
84881;SDS011;75144;52.360;9.814;2024-01-06T09:34:34;19.33;;;8.83;;
84881;SDS011;75144;52.360;9.814;2024-01-06T09:37:00;22.23;;;9.00;;
84881;SDS011;75144;52.360;9.814;2024-01-06T09:39:25;20.97;;;9.00;;
84881;SDS011;75144;52.360;9.814;2024-01-06T09:41:50;18.67;;;8.63;;
84881;SDS011;75144;52.360;9.814;2024-01-06T09:44:15;20.03;;;9.67;;
84881;SDS011;75144;52.360;9.814;2024-01-06T09:46:42;21.85;;;9.02;;
84881;SDS011;75144;52.360;9.814;2024-01-06T09:49:08;18.67;;;8.98;;
84881;SDS011;75144;52.360;9.814;2024-01-06T09:51:34;20.55;;;9.85;;
84881;SDS011;75144;52.360;9.814;2024-01-06T09:54:03;21.20;;;8.38;;
84881;SDS011;75144;52.360;9.814;2024-01-06T09:56:32;23.40;;;9.32;;
84881;SDS011;75144;52.360;9.814;2024-01-06T09:58:58;19.70;;;9.52;;
84881;SDS011;75144;52.360;9.814;2024-01-06T10:01:24;19.63;;;8.15;;
84881;SDS011;75144;52.360;9.814;2024-01-06T10:03:49;19.25;;;8.75;;
84881;SDS011;75144;52.360;9.814;2024-01-06T10:06:15;18.55;;;8.27;;
84881;SDS011;75144;52.360;9.814;2024-01-06T10:08:50;21.50;;;9.27;;
84881;SDS011;75144;52.360;9.814;2024-01-06T10:11:16;19.38;;;8.77;;
84881;SDS011;75144;52.360;9.814;2024-01-06T10:13:42;21.92;;;9.25;;
84881;SDS011;75144;52.360;9.814;2024-01-06T10:16:07;22.07;;;9.13;;
84881;SDS011;75144;52.360;9.814;2024-01-06T10:18:33;20.05;;;9.93;;
84881;SDS011;75144;52.360;9.814;2024-01-06T10:21:02;20.63;;;8.48;;
84881;SDS011;75144;52.360;9.814;2024-01-06T10:23:29;20.35;;;9.05;;
84881;SDS011;75144;52.360;9.814;2024-01-06T10:25:56;17.50;;;8.52;;
84881;SDS011;75144;52.360;9.814;2024-01-06T10:28:22;22.13;;;10.10;;
84881;SDS011;75144;52.360;9.814;2024-01-06T10:30:48;20.23;;;10.23;;
84881;SDS011;75144;52.360;9.814;2024-01-06T10:33:16;20.73;;;8.27;;
84881;SDS011;75144;52.360;9.814;2024-01-06T10:35:42;18.27;;;8.20;;
84881;SDS011;75144;52.360;9.814;2024-01-06T10:38:07;23.50;;;10.13;;
84881;SDS011;75144;52.360;9.814;2024-01-06T10:40:32;22.93;;;9.80;;
84881;SDS011;75144;52.360;9.814;2024-01-06T10:42:58;23.92;;;10.57;;
84881;SDS011;75144;52.360;9.814;2024-01-06T10:45:25;23.80;;;10.57;;
84881;SDS011;75144;52.360;9.814;2024-01-06T10:47:52;24.83;;;9.93;;
84881;SDS011;75144;52.360;9.814;2024-01-06T10:50:18;21.08;;;9.68;;
84881;SDS011;75144;52.360;9.814;2024-01-06T10:52:44;22.73;;;10.50;;
84881;SDS011;75144;52.360;9.814;2024-01-06T10:55:11;24.30;;;9.43;;
84881;SDS011;75144;52.360;9.814;2024-01-06T10:57:37;20.27;;;9.20;;
84881;SDS011;75144;52.360;9.814;2024-01-06T11:00:03;31.77;;;11.23;;
84881;SDS011;75144;52.360;9.814;2024-01-06T11:02:30;23.08;;;9.77;;
84881;SDS011;75144;52.360;9.814;2024-01-06T11:04:56;25.20;;;10.30;;
84881;SDS011;75144;52.360;9.814;2024-01-06T11:07:22;27.83;;;12.00;;
84881;SDS011;75144;52.360;9.814;2024-01-06T11:09:55;21.88;;;10.68;;
84881;SDS011;75144;52.360;9.814;2024-01-06T11:14:48;22.52;;;9.10;;
84881;SDS011;75144;52.360;9.814;2024-01-06T11:17:26;21.33;;;9.83;;
84881;SDS011;75144;52.360;9.814;2024-01-06T11:20:18;25.92;;;10.20;;
84881;SDS011;75144;52.360;9.814;2024-01-06T11:22:43;25.70;;;9.85;;
84881;SDS011;75144;52.360;9.814;2024-01-06T11:25:14;26.08;;;10.80;;
84881;SDS011;75144;52.360;9.814;2024-01-06T11:27:41;25.13;;;11.20;;
84881;SDS011;75144;52.360;9.814;2024-01-06T11:30:09;20.42;;;9.35;;
84881;SDS011;75144;52.360;9.814;2024-01-06T11:32:44;24.92;;;10.88;;
84881;SDS011;75144;52.360;9.814;2024-01-06T11:35:12;21.20;;;9.85;;
84881;SDS011;75144;52.360;9.814;2024-01-06T11:40:09;19.90;;;9.23;;
84881;SDS011;75144;52.360;9.814;2024-01-06T11:42:39;20.15;;;8.63;;
84881;SDS011;75144;52.360;9.814;2024-01-06T11:45:06;19.77;;;9.57;;
84881;SDS011;75144;52.360;9.814;2024-01-06T11:47:33;20.23;;;8.93;;
84881;SDS011;75144;52.360;9.814;2024-01-06T11:49:59;21.45;;;9.27;;
84881;SDS011;75144;52.360;9.814;2024-01-06T11:52:26;20.38;;;9.48;;
84881;SDS011;75144;52.360;9.814;2024-01-06T11:54:52;23.92;;;9.93;;
84881;SDS011;75144;52.360;9.814;2024-01-06T11:57:20;20.55;;;9.80;;
84881;SDS011;75144;52.360;9.814;2024-01-06T11:59:46;19.60;;;8.80;;
84881;SDS011;75144;52.360;9.814;2024-01-06T12:02:12;22.38;;;9.55;;
84881;SDS011;75144;52.360;9.814;2024-01-06T12:04:40;19.40;;;8.10;;
84881;SDS011;75144;52.360;9.814;2024-01-06T12:07:08;23.30;;;9.70;;
84881;SDS011;75144;52.360;9.814;2024-01-06T12:09:34;22.38;;;9.65;;
84881;SDS011;75144;52.360;9.814;2024-01-06T12:12:04;21.38;;;9.77;;
84881;SDS011;75144;52.360;9.814;2024-01-06T12:14:30;20.75;;;9.40;;
84881;SDS011;75144;52.360;9.814;2024-01-06T12:16:55;22.33;;;10.10;;
84881;SDS011;75144;52.360;9.814;2024-01-06T12:19:25;26.75;;;10.38;;
84881;SDS011;75144;52.360;9.814;2024-01-06T12:21:50;22.58;;;9.55;;
84881;SDS011;75144;52.360;9.814;2024-01-06T12:24:16;20.97;;;9.10;;
84881;SDS011;75144;52.360;9.814;2024-01-06T12:26:45;24.08;;;10.35;;
84881;SDS011;75144;52.360;9.814;2024-01-06T12:29:11;26.77;;;10.80;;
84881;SDS011;75144;52.360;9.814;2024-01-06T12:31:38;22.50;;;10.52;;
84881;SDS011;75144;52.360;9.814;2024-01-06T12:34:04;22.08;;;10.63;;
84881;SDS011;75144;52.360;9.814;2024-01-06T12:36:29;23.97;;;10.20;;
84881;SDS011;75144;52.360;9.814;2024-01-06T12:38:55;22.27;;;9.27;;
84881;SDS011;75144;52.360;9.814;2024-01-06T12:41:23;24.42;;;9.82;;
84881;SDS011;75144;52.360;9.814;2024-01-06T12:43:49;25.17;;;9.50;;
84881;SDS011;75144;52.360;9.814;2024-01-06T12:46:14;24.97;;;10.20;;
84881;SDS011;75144;52.360;9.814;2024-01-06T12:48:39;25.95;;;9.85;;
84881;SDS011;75144;52.360;9.814;2024-01-06T12:51:05;26.83;;;10.15;;
84881;SDS011;75144;52.360;9.814;2024-01-06T12:53:30;26.00;;;10.10;;
84881;SDS011;75144;52.360;9.814;2024-01-06T12:55:55;25.67;;;9.53;;
84881;SDS011;75144;52.360;9.814;2024-01-06T12:58:21;22.67;;;9.33;;
84881;SDS011;75144;52.360;9.814;2024-01-06T13:00:46;20.38;;;10.38;;
84881;SDS011;75144;52.360;9.814;2024-01-06T13:03:11;26.00;;;10.50;;
84881;SDS011;75144;52.360;9.814;2024-01-06T13:05:38;24.98;;;10.73;;
84881;SDS011;75144;52.360;9.814;2024-01-06T13:08:03;22.63;;;9.65;;
84881;SDS011;75144;52.360;9.814;2024-01-06T13:10:29;26.63;;;11.13;;
84881;SDS011;75144;52.360;9.814;2024-01-06T13:12:54;25.38;;;10.30;;
84881;SDS011;75144;52.360;9.814;2024-01-06T13:15:19;28.40;;;10.70;;
84881;SDS011;75144;52.360;9.814;2024-01-06T13:17:45;25.70;;;9.90;;
84881;SDS011;75144;52.360;9.814;2024-01-06T13:20:10;26.80;;;10.43;;
84881;SDS011;75144;52.360;9.814;2024-01-06T13:22:35;25.10;;;10.60;;
84881;SDS011;75144;52.360;9.814;2024-01-06T13:25:00;27.17;;;11.57;;
84881;SDS011;75144;52.360;9.814;2024-01-06T13:27:26;25.07;;;10.47;;
84881;SDS011;75144;52.360;9.814;2024-01-06T13:29:54;26.25;;;11.23;;
84881;SDS011;75144;52.360;9.814;2024-01-06T13:32:19;27.00;;;11.75;;
84881;SDS011;75144;52.360;9.814;2024-01-06T13:34:47;25.40;;;10.60;;
84881;SDS011;75144;52.360;9.814;2024-01-06T13:37:12;22.60;;;9.23;;
84881;SDS011;75144;52.360;9.814;2024-01-06T13:39:37;19.07;;;9.00;;
84881;SDS011;75144;52.360;9.814;2024-01-06T13:42:02;21.00;;;9.07;;
84881;SDS011;75144;52.360;9.814;2024-01-06T13:44:31;21.70;;;8.45;;
84881;SDS011;75144;52.360;9.814;2024-01-06T13:46:56;24.57;;;9.97;;
84881;SDS011;75144;52.360;9.814;2024-01-06T13:49:22;26.60;;;9.73;;
84881;SDS011;75144;52.360;9.814;2024-01-06T13:51:48;26.15;;;9.68;;
84881;SDS011;75144;52.360;9.814;2024-01-06T13:54:14;20.80;;;9.25;;
84881;SDS011;75144;52.360;9.814;2024-01-06T13:56:39;24.13;;;9.13;;
84881;SDS011;75144;52.360;9.814;2024-01-06T13:59:04;22.33;;;9.67;;
84881;SDS011;75144;52.360;9.814;2024-01-06T14:01:30;21.07;;;9.00;;
84881;SDS011;75144;52.360;9.814;2024-01-06T14:03:56;23.80;;;9.77;;
84881;SDS011;75144;52.360;9.814;2024-01-06T14:06:28;24.65;;;9.50;;
84881;SDS011;75144;52.360;9.814;2024-01-06T14:08:55;24.00;;;9.60;;
84881;SDS011;75144;52.360;9.814;2024-01-06T14:11:21;24.00;;;10.07;;
84881;SDS011;75144;52.360;9.814;2024-01-06T14:13:46;24.17;;;9.00;;
84881;SDS011;75144;52.360;9.814;2024-01-06T14:16:14;25.38;;;9.80;;
84881;SDS011;75144;52.360;9.814;2024-01-06T14:18:39;18.55;;;8.95;;
84881;SDS011;75144;52.360;9.814;2024-01-06T14:21:05;18.90;;;7.47;;
84881;SDS011;75144;52.360;9.814;2024-01-06T14:23:30;23.67;;;9.00;;
84881;SDS011;75144;52.360;9.814;2024-01-06T14:25:57;23.42;;;8.70;;
84881;SDS011;75144;52.360;9.814;2024-01-06T14:28:22;19.60;;;8.80;;
84881;SDS011;75144;52.360;9.814;2024-01-06T14:30:48;19.07;;;8.77;;
84881;SDS011;75144;52.360;9.814;2024-01-06T14:33:13;20.23;;;8.03;;
84881;SDS011;75144;52.360;9.814;2024-01-06T14:35:38;19.23;;;8.38;;
84881;SDS011;75144;52.360;9.814;2024-01-06T14:38:04;20.60;;;8.63;;
84881;SDS011;75144;52.360;9.814;2024-01-06T14:40:30;22.40;;;9.30;;
84881;SDS011;75144;52.360;9.814;2024-01-06T14:42:55;21.87;;;9.67;;
84881;SDS011;75144;52.360;9.814;2024-01-06T14:45:22;21.08;;;8.98;;